createdAt,value
2023-04-30T00:02:13.149Z,8.33
2023-04-30T00:05:14.732Z,6.77
2023-04-30T00:08:16.403Z,12.43
2023-04-30T00:11:17.998Z,8.43
2023-04-30T00:14:19.692Z,11.57
2023-04-30T00:17:21.473Z,7.90
2023-04-30T00:20:23.096Z,9.57
2023-04-30T00:23:24.696Z,8.63
2023-04-30T00:26:26.915Z,7.10
2023-04-30T00:29:29.194Z,8.00
2023-04-30T00:32:30.895Z,8.73
2023-04-30T00:35:32.627Z,9.10
2023-04-30T00:38:34.276Z,7.17
2023-04-30T00:41:36.300Z,9.30
2023-04-30T00:44:38.441Z,8.93
2023-04-30T00:47:40.721Z,9.47
2023-04-30T00:50:44.116Z,10.27
2023-04-30T00:53:46.549Z,8.43
2023-04-30T00:56:48.301Z,7.73
2023-04-30T00:59:50.182Z,7.63
2023-04-30T01:02:52.351Z,9.50
2023-04-30T01:05:54.258Z,7.50
2023-04-30T01:08:57.400Z,8.57
2023-04-30T01:12:05.467Z,9.57
2023-04-30T01:15:15.280Z,7.40
2023-04-30T01:18:37.867Z,9.00
2023-04-30T01:21:41.680Z,8.23
2023-04-30T01:25:06.766Z,8.70
2023-04-30T01:28:08.627Z,7.73
2023-04-30T01:31:18.904Z,9.07
2023-04-30T01:34:20.936Z,7.07
2023-04-30T01:37:28.176Z,6.00
2023-04-30T01:40:36.574Z,9.00
2023-04-30T01:43:50.522Z,8.00
2023-04-30T01:47:05.479Z,8.43
2023-04-30T01:50:16.110Z,7.93
2023-04-30T01:53:26.890Z,7.40
2023-04-30T01:56:32.453Z,7.40
2023-04-30T01:59:39.538Z,10.53
2023-04-30T02:02:41.572Z,11.67
2023-04-30T02:05:43.250Z,8.27
2023-04-30T02:08:44.876Z,7.77
2023-04-30T02:11:46.529Z,8.23
2023-04-30T02:14:48.152Z,7.53
2023-04-30T02:17:49.945Z,6.50
2023-04-30T02:20:51.639Z,9.00
2023-04-30T02:23:53.408Z,6.23
2023-04-30T02:26:55.221Z,8.17
2023-04-30T02:29:57.021Z,7.90
2023-04-30T02:32:58.710Z,10.73
2023-04-30T02:36:00.861Z,11.93
2023-04-30T02:39:02.646Z,7.87
2023-04-30T02:42:06.729Z,7.47
2023-04-30T02:45:08.612Z,8.80
2023-04-30T02:48:10.311Z,7.70
2023-04-30T02:51:12.003Z,9.00
2023-04-30T02:54:13.706Z,9.40
2023-04-30T02:57:15.380Z,7.53
2023-04-30T03:00:17.664Z,7.90
2023-04-30T03:03:19.930Z,7.30
2023-04-30T03:06:22.021Z,9.97
2023-04-30T03:09:23.723Z,7.70
2023-04-30T03:12:25.552Z,7.20
2023-04-30T03:15:27.202Z,7.90
2023-04-30T03:18:29.031Z,6.80
2023-04-30T03:21:31.555Z,9.03
2023-04-30T03:24:33.186Z,9.57
2023-04-30T03:27:34.887Z,9.83
2023-04-30T03:30:36.631Z,9.97
2023-04-30T03:33:38.318Z,10.27
2023-04-30T03:36:39.990Z,9.00
2023-04-30T03:39:41.719Z,9.47
2023-04-30T03:42:43.334Z,9.23
2023-04-30T03:45:45.006Z,13.47
2023-04-30T03:48:46.782Z,14.30
2023-04-30T03:51:49.029Z,8.03
2023-04-30T03:54:52.657Z,9.53
2023-04-30T03:57:59.568Z,15.33
2023-04-30T04:01:04.149Z,10.23
2023-04-30T04:04:13.863Z,12.23
2023-04-30T04:07:15.833Z,8.53
2023-04-30T04:10:18.475Z,7.17
2023-04-30T04:13:20.158Z,9.73
2023-04-30T04:16:22.308Z,9.37
2023-04-30T04:19:24.273Z,10.27
2023-04-30T04:22:26.225Z,9.87
2023-04-30T04:25:28.768Z,10.77
2023-04-30T04:28:30.518Z,10.27
2023-04-30T04:31:32.549Z,8.43
2023-04-30T04:34:34.236Z,7.20
2023-04-30T04:37:35.955Z,11.67
2023-04-30T04:40:38.365Z,14.10
2023-04-30T04:43:40.027Z,9.40
2023-04-30T04:46:45.899Z,7.63
2023-04-30T04:49:47.667Z,6.03
2023-04-30T04:52:49.273Z,8.47
2023-04-30T04:55:50.987Z,7.57
2023-04-30T04:58:53.049Z,9.37
2023-04-30T05:01:54.855Z,5.43
2023-04-30T05:04:56.747Z,8.50
2023-04-30T05:07:58.389Z,6.73
2023-04-30T05:11:00.126Z,7.90
2023-04-30T05:14:01.751Z,7.80
2023-04-30T05:17:03.390Z,7.43
2023-04-30T05:20:07.395Z,7.50
2023-04-30T05:23:09.107Z,9.97
2023-04-30T05:26:10.794Z,9.50
2023-04-30T05:29:12.617Z,9.37
2023-04-30T05:32:14.395Z,11.90
2023-04-30T05:35:16.812Z,12.60
2023-04-30T05:38:18.441Z,10.87
2023-04-30T05:41:20.361Z,9.07
2023-04-30T05:44:22.177Z,7.47
2023-04-30T05:47:23.744Z,11.83
2023-04-30T05:50:25.437Z,9.93
2023-04-30T05:53:27.094Z,12.83
2023-04-30T05:56:28.783Z,10.00
2023-04-30T05:59:30.381Z,6.93
2023-04-30T06:02:32.178Z,11.27
2023-04-30T06:05:33.871Z,9.00
2023-04-30T06:08:35.555Z,9.60
2023-04-30T06:11:41.649Z,5.90
2023-04-30T06:14:45.948Z,12.80
2023-04-30T06:17:47.603Z,5.50
2023-04-30T06:20:49.552Z,5.30
2023-04-30T06:23:51.533Z,6.20
2023-04-30T06:26:53.329Z,5.57
2023-04-30T06:29:55.477Z,5.47
2023-04-30T06:32:57.591Z,6.73
2023-04-30T06:35:59.229Z,7.30
2023-04-30T06:39:01.138Z,7.20
2023-04-30T06:42:02.890Z,5.97
2023-04-30T06:45:06.787Z,8.27
2023-04-30T06:48:08.488Z,9.00
2023-04-30T06:51:10.808Z,4.73
2023-04-30T06:54:12.955Z,7.57
2023-04-30T06:57:14.533Z,3.87
2023-04-30T07:00:16.860Z,5.13
2023-04-30T07:03:18.784Z,4.18
2023-04-30T07:06:20.959Z,6.40
2023-04-30T07:09:22.843Z,4.70
2023-04-30T07:12:24.564Z,4.22
2023-04-30T07:15:26.313Z,4.57
2023-04-30T07:18:27.904Z,3.03
2023-04-30T07:21:29.745Z,4.82
2023-04-30T07:24:31.447Z,5.03
2023-04-30T07:27:33.114Z,3.47
2023-04-30T07:30:34.918Z,5.75
2023-04-30T07:33:36.731Z,4.05
2023-04-30T07:36:38.807Z,4.10
2023-04-30T07:39:40.803Z,2.80
2023-04-30T07:42:42.635Z,6.40
2023-04-30T07:45:44.714Z,3.13
2023-04-30T07:48:46.657Z,3.67
2023-04-30T07:51:48.513Z,3.28
2023-04-30T07:54:50.532Z,3.33
2023-04-30T07:57:52.177Z,4.80
2023-04-30T08:00:54.002Z,3.80
2023-04-30T08:03:56.057Z,4.03
2023-04-30T08:06:57.835Z,2.70
2023-04-30T08:09:59.500Z,3.00
2023-04-30T08:13:01.172Z,3.45
2023-04-30T08:16:02.802Z,3.80
2023-04-30T08:19:05.230Z,3.20
2023-04-30T08:22:06.869Z,2.80
2023-04-30T08:25:10.856Z,6.13
2023-04-30T08:28:12.718Z,5.28
2023-04-30T08:31:14.476Z,3.85
2023-04-30T08:34:16.202Z,3.38
2023-04-30T08:37:18.096Z,4.18
2023-04-30T08:40:20.915Z,6.25
2023-04-30T08:43:23.459Z,4.82
2023-04-30T08:46:25.370Z,4.18
2023-04-30T08:49:28.255Z,5.28
2023-04-30T08:52:30.299Z,3.80
2023-04-30T08:55:33.993Z,4.57
2023-04-30T08:58:36.150Z,3.20
2023-04-30T09:01:37.872Z,4.90
2023-04-30T09:04:39.906Z,5.00
2023-04-30T09:07:48.969Z,4.10
2023-04-30T09:10:57.553Z,3.60
2023-04-30T09:13:59.834Z,3.83
2023-04-30T09:17:01.764Z,6.07
2023-04-30T09:20:13.012Z,5.20
2023-04-30T09:23:14.771Z,6.43
2023-04-30T09:26:22.162Z,5.27
2023-04-30T09:29:36.217Z,3.60
2023-04-30T09:32:54.567Z,3.63
2023-04-30T09:35:56.394Z,4.45
2023-04-30T09:39:09.630Z,2.75
2023-04-30T09:42:12.462Z,5.13
2023-04-30T09:45:14.180Z,2.90
2023-04-30T09:48:17.825Z,4.67
2023-04-30T09:51:19.790Z,4.70
2023-04-30T09:54:23.590Z,4.80
2023-04-30T09:57:25.646Z,5.30
2023-04-30T10:00:27.500Z,3.80
2023-04-30T10:03:31.040Z,3.23
2023-04-30T10:06:35.553Z,7.70
2023-04-30T10:09:42.562Z,5.37
2023-04-30T10:12:52.354Z,7.97
2023-04-30T10:15:56.976Z,5.63
2023-04-30T10:19:00.287Z,12.40
2023-04-30T10:22:02.222Z,4.27
2023-04-30T10:25:03.979Z,6.27
2023-04-30T10:28:05.941Z,6.03
2023-04-30T10:31:08.526Z,4.50
2023-04-30T10:34:28.957Z,5.23
2023-04-30T10:37:40.218Z,4.83
2023-04-30T10:40:45.640Z,4.03
2023-04-30T10:43:47.759Z,4.33
2023-04-30T10:46:49.463Z,4.27
2023-04-30T10:49:51.221Z,3.77
2023-04-30T10:53:03.730Z,4.37
2023-04-30T10:56:07.518Z,4.17
2023-04-30T10:59:09.290Z,6.10
2023-04-30T11:02:11.300Z,6.07
2023-04-30T11:05:14.492Z,7.17
2023-04-30T11:08:17.093Z,4.27
2023-04-30T11:11:21.282Z,4.17
2023-04-30T11:14:23.212Z,7.97
2023-04-30T11:17:25.131Z,4.77
2023-04-30T11:20:27.074Z,3.43
2023-04-30T11:23:40.040Z,4.70
2023-04-30T11:27:02.433Z,7.03
2023-04-30T11:30:10.152Z,4.60
2023-04-30T11:33:12.317Z,8.10
2023-04-30T11:36:14.369Z,4.23
2023-04-30T11:39:16.624Z,4.93
2023-04-30T11:42:18.959Z,4.40
2023-04-30T11:45:23.864Z,4.30
2023-04-30T11:48:30.237Z,4.57
2023-04-30T11:51:33.061Z,4.30
2023-04-30T11:54:36.567Z,4.43
2023-04-30T11:57:42.014Z,4.17
2023-04-30T12:00:43.874Z,9.77
2023-04-30T12:03:47.337Z,4.90
2023-04-30T12:06:49.640Z,4.37
2023-04-30T12:09:52.249Z,4.37
2023-04-30T12:12:55.343Z,5.30
2023-04-30T12:15:58.329Z,5.90
2023-04-30T12:19:00.014Z,7.67
2023-04-30T12:22:01.685Z,7.10
2023-04-30T12:25:13.844Z,5.23
2023-04-30T12:28:15.584Z,7.93
2023-04-30T12:31:17.768Z,5.53
2023-04-30T12:34:19.423Z,7.97
2023-04-30T12:37:21.056Z,6.27
2023-04-30T12:40:27.042Z,8.67
2023-04-30T12:43:28.754Z,9.87
2023-04-30T12:46:30.489Z,8.47
2023-04-30T12:49:35.831Z,5.30
2023-04-30T12:52:37.518Z,4.50
2023-04-30T12:55:39.807Z,5.40
2023-04-30T12:58:42.225Z,7.13
2023-04-30T13:01:47.261Z,5.43
2023-04-30T13:04:49.534Z,7.47
2023-04-30T13:07:55.716Z,11.17
2023-04-30T13:10:57.330Z,6.50
2023-04-30T13:13:58.982Z,5.93
2023-04-30T13:17:02.703Z,8.63
2023-04-30T13:20:04.568Z,9.30
2023-04-30T13:23:06.521Z,10.23
2023-04-30T13:26:08.169Z,6.33
2023-04-30T13:29:09.827Z,8.17
2023-04-30T13:32:11.527Z,4.47
2023-04-30T13:35:13.301Z,6.90
2023-04-30T13:38:15.047Z,5.43
2023-04-30T13:41:16.746Z,5.77
2023-04-30T13:44:18.644Z,3.60
2023-04-30T13:47:21.450Z,4.33
2023-04-30T13:50:23.175Z,4.77
2023-04-30T13:53:24.882Z,3.40
2023-04-30T13:56:26.907Z,9.73
2023-04-30T13:59:28.925Z,5.67
2023-04-30T14:02:30.820Z,17.30
2023-04-30T14:05:32.574Z,18.20
2023-04-30T14:08:34.270Z,5.27
2023-04-30T14:11:36.131Z,13.57
2023-04-30T14:14:39.284Z,6.03
2023-04-30T14:17:41.141Z,5.03
2023-04-30T14:20:42.922Z,8.67
2023-04-30T14:23:46.664Z,5.80
2023-04-30T14:26:48.398Z,5.90
2023-04-30T14:29:50.162Z,5.37
2023-04-30T14:32:51.906Z,5.33
2023-04-30T14:35:54.915Z,3.80
2023-04-30T14:38:56.653Z,4.73
2023-04-30T14:41:58.328Z,3.23
2023-04-30T14:45:00.152Z,6.83
2023-04-30T14:48:03.959Z,6.63
2023-04-30T14:51:07.708Z,3.73
2023-04-30T14:54:09.452Z,4.40
2023-04-30T14:57:11.286Z,3.80
2023-04-30T15:00:13.271Z,6.73
2023-04-30T15:03:15.017Z,5.53
2023-04-30T15:06:16.832Z,4.53
2023-04-30T15:09:18.494Z,5.07
2023-04-30T15:12:20.591Z,5.00
2023-04-30T15:15:27.883Z,4.23
2023-04-30T15:18:29.636Z,6.87
2023-04-30T15:21:31.302Z,7.57
2023-04-30T15:24:33.395Z,8.37
2023-04-30T15:27:36.789Z,4.60
2023-04-30T15:30:38.563Z,4.97
2023-04-30T15:33:42.172Z,5.77
2023-04-30T15:36:43.916Z,5.70
2023-04-30T15:39:46.772Z,3.07
2023-04-30T15:42:50.279Z,4.30
2023-04-30T15:45:52.116Z,8.47
2023-04-30T15:48:53.834Z,4.03
2023-04-30T15:51:55.476Z,3.43
2023-04-30T15:54:57.127Z,5.57
2023-04-30T15:57:58.864Z,4.07
2023-04-30T16:01:02.007Z,5.00
2023-04-30T16:04:04.137Z,4.40
2023-04-30T16:07:06.223Z,4.47
2023-04-30T16:10:09.719Z,4.13
2023-04-30T16:13:11.520Z,4.67
2023-04-30T16:16:13.754Z,6.73
2023-04-30T16:19:15.543Z,5.27
2023-04-30T16:22:17.317Z,8.30
2023-04-30T16:25:19.480Z,9.43
2023-04-30T16:28:23.503Z,5.67
2023-04-30T16:31:25.219Z,11.03
2023-04-30T16:34:26.943Z,8.73
2023-04-30T16:37:29.046Z,6.83
2023-04-30T16:40:31.162Z,9.50
2023-04-30T16:43:32.805Z,6.60
2023-04-30T16:46:35.400Z,11.30
2023-04-30T16:49:37.420Z,8.97
2023-04-30T16:52:39.026Z,11.17
2023-04-30T16:55:40.616Z,9.27
2023-04-30T16:58:42.323Z,9.13
2023-04-30T17:01:44.045Z,10.63
2023-04-30T17:04:45.763Z,14.70
2023-04-30T17:07:47.406Z,10.60
2023-04-30T17:10:49.054Z,11.53
2023-04-30T17:13:50.874Z,9.67
2023-04-30T17:16:52.561Z,9.43
2023-04-30T17:19:54.314Z,11.50
2023-04-30T17:22:56.268Z,13.87
2023-04-30T17:25:58.140Z,11.90
2023-04-30T17:28:59.800Z,16.43
2023-04-30T17:32:01.510Z,26.27
2023-04-30T17:35:06.117Z,20.17
2023-04-30T17:38:07.961Z,14.70
2023-04-30T17:41:09.715Z,12.77
2023-04-30T17:44:11.822Z,10.70
2023-04-30T17:47:16.189Z,10.40
2023-04-30T17:50:18.039Z,18.13
2023-04-30T17:53:19.671Z,13.53
2023-04-30T17:56:22.012Z,12.70
2023-04-30T17:59:23.634Z,11.47
2023-04-30T18:02:26.037Z,12.83
2023-04-30T18:05:27.655Z,11.77
2023-04-30T18:08:29.304Z,14.20
2023-04-30T18:11:30.918Z,12.17
2023-04-30T18:14:32.690Z,19.73
2023-04-30T18:17:36.468Z,12.70
2023-04-30T18:20:38.919Z,15.00
2023-04-30T18:23:40.963Z,17.07
2023-04-30T18:26:42.576Z,11.93
2023-04-30T18:29:44.699Z,13.37
2023-04-30T18:32:46.334Z,21.27
2023-04-30T18:35:50.653Z,18.67
2023-04-30T18:38:52.430Z,11.07
2023-04-30T18:41:54.178Z,11.53
2023-04-30T18:44:57.189Z,14.83
2023-04-30T18:47:58.888Z,13.23
2023-04-30T18:51:01.027Z,18.37
2023-04-30T18:54:02.671Z,16.33
2023-04-30T18:57:04.213Z,13.40
2023-04-30T19:00:08.137Z,9.07
2023-04-30T19:03:10.033Z,9.03
2023-04-30T19:06:11.793Z,10.37
2023-04-30T19:09:15.426Z,8.60
2023-04-30T19:12:17.223Z,10.57
2023-04-30T19:15:18.802Z,8.70
2023-04-30T19:18:20.776Z,13.53
2023-04-30T19:21:23.503Z,10.40
2023-04-30T19:24:25.425Z,9.20
2023-04-30T19:27:27.160Z,12.07
2023-04-30T19:30:29.265Z,9.03
2023-04-30T19:33:36.494Z,10.17
2023-04-30T19:36:38.116Z,12.00
2023-04-30T19:39:40.366Z,13.20
2023-04-30T19:42:42.119Z,11.13
2023-04-30T19:45:48.228Z,8.43
2023-04-30T19:48:50.534Z,8.50
2023-04-30T19:51:52.195Z,8.87
2023-04-30T19:54:54.267Z,9.73
2023-04-30T19:57:55.921Z,11.70
2023-04-30T20:00:57.886Z,7.13
2023-04-30T20:03:59.680Z,9.73
2023-04-30T20:07:01.515Z,8.03
2023-04-30T20:10:03.224Z,9.23
2023-04-30T20:13:05.595Z,12.60
2023-04-30T20:16:09.818Z,9.97
2023-04-30T20:19:13.229Z,11.67
2023-04-30T20:22:14.803Z,8.70
2023-04-30T20:25:16.439Z,13.03
2023-04-30T20:28:18.378Z,10.57
2023-04-30T20:31:20.106Z,8.83
2023-04-30T20:34:22.179Z,9.43
2023-04-30T20:37:24.117Z,10.67
2023-04-30T20:40:26.995Z,9.23
2023-04-30T20:43:28.873Z,7.33
2023-04-30T20:46:32.269Z,7.50
2023-04-30T20:49:34.187Z,8.05
2023-04-30T20:52:35.811Z,8.70
2023-04-30T20:55:37.474Z,6.00
2023-04-30T20:58:39.252Z,5.63
2023-04-30T21:01:41.228Z,9.10
2023-04-30T21:04:43.157Z,9.10
2023-04-30T21:07:44.773Z,7.07
2023-04-30T21:10:46.508Z,7.70
2023-04-30T21:13:50.759Z,8.83
2023-04-30T21:16:53.037Z,8.53
2023-04-30T21:19:56.809Z,7.07
2023-04-30T21:22:58.807Z,10.37
2023-04-30T21:26:00.442Z,9.63
2023-04-30T21:29:02.867Z,13.37
2023-04-30T21:32:04.920Z,6.73
2023-04-30T21:35:07.059Z,8.37
2023-04-30T21:38:10.974Z,9.90
2023-04-30T21:41:16.400Z,10.13
2023-04-30T21:44:18.127Z,12.03
2023-04-30T21:47:19.724Z,11.10
2023-04-30T21:50:21.495Z,10.17
2023-04-30T21:53:23.178Z,8.97
2023-04-30T21:56:24.818Z,9.03
2023-04-30T21:59:26.460Z,7.50
2023-04-30T22:02:28.293Z,11.17
2023-04-30T22:05:30.121Z,7.90
2023-04-30T22:08:31.910Z,7.13
2023-04-30T22:11:33.567Z,10.40
2023-04-30T22:14:35.333Z,6.50
2023-04-30T22:17:36.991Z,8.97
2023-04-30T22:20:38.688Z,8.00
2023-04-30T22:23:40.925Z,5.67
2023-04-30T22:26:42.637Z,9.07
2023-04-30T22:29:44.918Z,6.70
2023-04-30T22:32:46.628Z,7.73
2023-04-30T22:35:48.624Z,8.53
2023-04-30T22:38:50.245Z,8.13
2023-04-30T22:41:54.057Z,8.60
2023-04-30T22:44:55.814Z,11.30
2023-04-30T22:47:59.411Z,11.17
2023-04-30T22:51:03.006Z,9.47
2023-04-30T22:54:04.855Z,8.43
2023-04-30T22:57:06.575Z,13.13
2023-04-30T23:00:09.634Z,9.40
2023-04-30T23:03:11.421Z,5.80
2023-04-30T23:06:13.609Z,8.80
2023-04-30T23:09:15.908Z,8.43
2023-04-30T23:12:17.539Z,7.60
2023-04-30T23:15:19.140Z,6.97
2023-04-30T23:18:21.532Z,6.13
2023-04-30T23:21:23.109Z,6.27
2023-04-30T23:24:24.690Z,6.70
2023-04-30T23:27:28.314Z,7.97
2023-04-30T23:30:29.928Z,8.70
2023-04-30T23:33:31.614Z,7.83
2023-04-30T23:36:33.311Z,8.57
2023-04-30T23:39:34.895Z,6.80
2023-04-30T23:42:36.543Z,7.63
2023-04-30T23:45:42.466Z,9.77
2023-04-30T23:48:44.270Z,9.63
2023-04-30T23:51:45.938Z,6.13
2023-04-30T23:54:47.594Z,6.80
2023-04-30T23:57:49.271Z,8.53
